Time;durP1;ratioP1;P1;durP2;ratioP2;P2;SDS_P1;SDS_P2;PMS_P1;PMS_P2;Temp;Humidity;BMP_temperature;BMP_pressure;BME280_temperature;BME280_humidity;BME280_pressure;Samples;Min_cycle;Max_cycle;Signal;HPM_P1;HPM_P2
2021/09/02 00:01:03;;;;;;;11.43;7.88;;;16.80;99.90;;;;;;4956054;29;20070;-70
2021/09/02 00:03:29;;;;;;;9.63;6.45;;;16.80;99.90;;;;;;4957563;28;20029;-70
2021/09/02 00:05:54;;;;;;;9.00;6.80;;;16.80;99.90;;;;;;4956499;28;20530;-68
2021/09/02 00:08:20;;;;;;;11.05;8.30;;;16.80;99.90;;;;;;4957776;28;20476;-68
2021/09/02 00:10:45;;;;;;;10.02;7.22;;;16.80;99.90;;;;;;4955938;29;20380;-69
2021/09/02 00:13:11;;;;;;;13.40;7.75;;;16.80;99.90;;;;;;4956917;28;20483;-68
2021/09/02 00:15:37;;;;;;;9.32;8.35;;;16.70;99.90;;;;;;4957519;28;20495;-70
2021/09/02 00:18:02;;;;;;;13.40;8.00;;;16.80;99.90;;;;;;4957039;28;20023;-68
2021/09/02 00:20:28;;;;;;;12.32;8.13;;;16.80;99.90;;;;;;4956716;28;20392;-68
2021/09/02 00:22:54;;;;;;;9.70;7.40;;;16.80;99.90;;;;;;4956875;28;20041;-68
2021/09/02 00:25:20;;;;;;;11.32;8.55;;;16.70;99.90;;;;;;4950381;29;20039;-68
2021/09/02 00:27:46;;;;;;;11.88;8.15;;;16.70;99.90;;;;;;4937371;29;20137;-68
2021/09/02 00:30:12;;;;;;;9.30;8.10;;;16.80;99.90;;;;;;4947288;29;20058;-71
2021/09/02 00:32:37;;;;;;;9.57;8.38;;;16.80;99.90;;;;;;4956646;28;20520;-71
2021/09/02 00:35:04;;;;;;;11.57;8.88;;;16.70;99.90;;;;;;4944587;29;20027;-70
2021/09/02 00:37:30;;;;;;;12.75;8.43;;;16.70;99.90;;;;;;4957263;28;20475;-71
2021/09/02 00:39:55;;;;;;;10.35;8.30;;;16.70;99.90;;;;;;4945717;28;20031;-68
2021/09/02 00:42:21;;;;;;;12.93;9.57;;;16.70;99.90;;;;;;4936308;29;20444;-69
2021/09/02 00:44:47;;;;;;;10.75;8.73;;;16.70;99.90;;;;;;4937485;29;20460;-70
2021/09/02 00:47:14;;;;;;;14.10;8.77;;;16.60;99.90;;;;;;4937618;29;20051;-68
2021/09/02 00:49:41;;;;;;;11.30;9.27;;;16.60;99.90;;;;;;4935729;29;20087;-70
2021/09/02 00:52:17;;;;;;;13.50;8.95;;;16.60;99.90;;;;;;4948498;29;20027;-69
2021/09/02 00:54:45;;;;;;;12.63;9.00;;;16.60;99.90;;;;;;4956759;28;20023;-69
2021/09/02 00:57:11;;;;;;;14.18;8.90;;;16.50;99.90;;;;;;4956334;28;20415;-68
2021/09/02 00:59:38;;;;;;;14.10;9.45;;;16.50;99.90;;;;;;4956048;28;20015;-69
2021/09/02 01:02:05;;;;;;;13.80;9.43;;;16.40;99.90;;;;;;4955698;28;20027;-69
2021/09/02 01:04:30;;;;;;;11.05;8.77;;;16.40;99.90;;;;;;4956840;28;20039;-72
2021/09/02 01:06:57;;;;;;;16.58;9.88;;;16.40;99.90;;;;;;4956186;28;20077;-68
2021/09/02 01:09:24;;;;;;;13.90;9.77;;;16.40;99.90;;;;;;4955939;28;20110;-71
2021/09/02 01:11:50;;;;;;;12.48;8.82;;;16.30;99.90;;;;;;4956250;28;20023;-68
2021/09/02 01:14:17;;;;;;;13.63;9.98;;;16.30;99.90;;;;;;4956439;28;20035;-68
2021/09/02 01:16:46;;;;;;;13.32;8.80;;;16.30;99.90;;;;;;4955577;28;20075;-69
2021/09/02 01:19:11;;;;;;;12.27;9.25;;;16.20;99.90;;;;;;4944173;28;20052;-68
2021/09/02 01:21:37;;;;;;;11.80;8.98;;;16.20;99.90;;;;;;4937225;29;20034;-68
2021/09/02 01:24:02;;;;;;;11.40;8.35;;;16.20;99.90;;;;;;4945008;29;20035;-68
2021/09/02 01:26:28;;;;;;;13.40;9.25;;;16.20;99.90;;;;;;4939905;28;20039;-69
2021/09/02 01:28:53;;;;;;;11.38;8.10;;;16.20;99.90;;;;;;4939818;29;20051;-69
2021/09/02 01:31:20;;;;;;;9.93;8.15;;;16.20;99.90;;;;;;4955642;28;20031;-68
2021/09/02 01:33:50;;;;;;;12.10;8.20;;;16.20;99.90;;;;;;4955992;28;20494;-69
2021/09/02 01:36:16;;;;;;;11.65;8.75;;;16.10;99.90;;;;;;4956018;28;20531;-70
2021/09/02 01:38:43;;;;;;;9.52;7.45;;;16.10;99.90;;;;;;4955361;28;20066;-69
2021/09/02 01:41:10;;;;;;;12.40;8.80;;;16.10;99.90;;;;;;4951757;28;20095;-68
2021/09/02 01:43:36;;;;;;;12.82;7.50;;;16.10;99.90;;;;;;4936853;29;20030;-70
2021/09/02 01:46:02;;;;;;;12.15;7.97;;;16.00;99.90;;;;;;4935546;29;20028;-69
2021/09/02 01:48:35;;;;;;;11.43;9.18;;;16.00;99.90;;;;;;4936708;29;20086;-69
2021/09/02 01:51:02;;;;;;;11.93;8.70;;;16.00;99.90;;;;;;4936145;29;20032;-69
2021/09/02 01:53:28;;;;;;;12.93;9.15;;;16.00;99.90;;;;;;4946518;29;20111;-69
2021/09/02 01:55:54;;;;;;;11.57;8.20;;;16.00;99.90;;;;;;4955251;28;20027;-68
2021/09/02 01:58:19;;;;;;;11.15;8.18;;;16.00;99.90;;;;;;4955045;28;20106;-70
2021/09/02 02:00:46;;;;;;;13.70;9.73;;;16.00;99.90;;;;;;4955126;28;20071;-68
2021/09/02 02:03:11;;;;;;;10.43;8.07;;;16.10;99.90;;;;;;4955591;28;20023;-69
2021/09/02 02:05:38;;;;;;;10.30;8.25;;;16.10;99.90;;;;;;4955047;28;20035;-68
2021/09/02 02:08:04;;;;;;;14.90;9.10;;;16.10;99.90;;;;;;4950615;28;20389;-68
2021/09/02 02:10:31;;;;;;;10.88;8.40;;;16.10;99.90;;;;;;4935091;29;20024;-68
2021/09/02 02:12:59;;;;;;;13.32;9.20;;;16.10;99.90;;;;;;4934997;29;20051;-68
2021/09/02 02:15:26;;;;;;;11.40;8.70;;;16.10;99.90;;;;;;4936138;29;20026;-68
2021/09/02 02:17:51;;;;;;;13.45;8.55;;;16.10;99.90;;;;;;4935794;29;20036;-68
2021/09/02 02:20:17;;;;;;;13.35;8.82;;;16.00;99.90;;;;;;4935145;29;20048;-68
2021/09/02 02:22:43;;;;;;;12.77;9.02;;;16.00;99.90;;;;;;4935867;29;20035;-70
2021/09/02 02:25:11;;;;;;;12.90;8.75;;;16.00;99.90;;;;;;4934605;29;20116;-69
2021/09/02 02:27:37;;;;;;;12.80;8.27;;;15.90;99.90;;;;;;4935386;29;20027;-69
2021/09/02 02:30:04;;;;;;;13.35;8.88;;;15.90;99.90;;;;;;4935285;29;20032;-69
2021/09/02 02:32:29;;;;;;;11.98;7.97;;;15.90;99.90;;;;;;4935779;29;20032;-76
2021/09/02 02:34:55;;;;;;;13.20;9.30;;;15.90;99.90;;;;;;4934778;29;20035;-70
2021/09/02 02:37:21;;;;;;;11.82;8.77;;;15.90;99.90;;;;;;4936119;29;20026;-72
2021/09/02 02:39:46;;;;;;;12.02;7.85;;;15.90;99.90;;;;;;4935434;29;20473;-74
2021/09/02 02:42:12;;;;;;;9.75;7.90;;;16.00;99.90;;;;;;4935018;29;20032;-72
2021/09/02 02:44:38;;;;;;;11.45;7.38;;;16.00;99.90;;;;;;4935623;29;20036;-69
2021/09/02 02:47:05;;;;;;;9.93;8.23;;;15.90;99.90;;;;;;4935220;29;20035;-70
2021/09/02 02:49:30;;;;;;;9.95;7.90;;;16.00;99.90;;;;;;4934950;29;20027;-69
2021/09/02 02:51:56;;;;;;;8.27;7.00;;;16.10;99.90;;;;;;4933874;29;20111;-69
2021/09/02 02:54:22;;;;;;;9.88;7.32;;;16.00;99.90;;;;;;4933692;29;20024;-68
2021/09/02 02:56:48;;;;;;;12.38;8.45;;;16.10;99.90;;;;;;4935299;29;20097;-69
2021/09/02 02:59:13;;;;;;;12.35;8.25;;;16.10;99.90;;;;;;4935446;29;20027;-75
2021/09/02 03:01:39;;;;;;;10.32;7.22;;;16.10;99.90;;;;;;4934848;29;20028;-73
2021/09/02 03:04:04;;;;;;;16.17;9.13;;;16.10;99.90;;;;;;4934864;29;20035;-72
2021/09/02 03:06:30;;;;;;;10.00;8.13;;;16.10;99.90;;;;;;4935444;29;20031;-69
2021/09/02 03:08:56;;;;;;;13.13;9.07;;;16.10;99.90;;;;;;4934288;29;20385;-70
2021/09/02 03:11:21;;;;;;;11.35;8.93;;;16.10;99.90;;;;;;4935463;29;20383;-78
2021/09/02 03:13:47;;;;;;;14.90;9.73;;;16.10;99.90;;;;;;4935243;29;20023;-71
2021/09/02 03:16:13;;;;;;;10.30;9.20;;;16.20;99.90;;;;;;4934977;29;20103;-71
2021/09/02 03:18:39;;;;;;;13.15;9.40;;;16.20;99.90;;;;;;4935478;29;20075;-77
2021/09/02 03:21:04;;;;;;;12.45;9.13;;;16.20;99.90;;;;;;4934723;29;20128;-76
2021/09/02 03:23:30;;;;;;;15.60;8.90;;;16.20;99.90;;;;;;4934274;29;20032;-71
2021/09/02 03:25:56;;;;;;;12.10;9.13;;;16.20;99.90;;;;;;4934622;29;20039;-69
2021/09/02 03:28:21;;;;;;;13.27;9.52;;;16.20;99.90;;;;;;4935380;29;20031;-75
2021/09/02 03:30:47;;;;;;;14.52;9.93;;;16.20;99.90;;;;;;4934037;29;20031;-74
2021/09/02 03:33:13;;;;;;;15.95;9.82;;;16.20;99.90;;;;;;4934986;29;20142;-72
2021/09/02 03:35:38;;;;;;;11.65;9.48;;;16.20;99.90;;;;;;4935121;29;20024;-70
2021/09/02 03:38:05;;;;;;;13.50;9.00;;;16.10;99.90;;;;;;4933979;29;20106;-69
2021/09/02 03:40:31;;;;;;;13.13;9.50;;;16.10;99.90;;;;;;4935015;29;20032;-76
2021/09/02 03:42:56;;;;;;;12.35;9.70;;;16.20;99.90;;;;;;4934722;29;20111;-69
2021/09/02 03:45:22;;;;;;;15.15;9.88;;;16.20;99.90;;;;;;4934388;29;20032;-69
2021/09/02 03:47:49;;;;;;;11.88;9.05;;;16.20;99.90;;;;;;4934541;29;20098;-70
2021/09/02 03:50:16;;;;;;;16.52;9.30;;;16.10;99.90;;;;;;4934780;29;20425;-71
2021/09/02 03:52:41;;;;;;;14.38;9.32;;;16.20;99.90;;;;;;4934067;29;20016;-69
2021/09/02 03:55:08;;;;;;;18.05;9.90;;;16.10;99.90;;;;;;4934924;29;20032;-69
2021/09/02 03:57:34;;;;;;;12.27;9.15;;;16.10;99.90;;;;;;4935050;29;20023;-70
2021/09/02 03:59:59;;;;;;;12.15;9.02;;;16.10;99.90;;;;;;4933817;29;20031;-71
2021/09/02 04:02:25;;;;;;;10.48;8.80;;;16.10;99.90;;;;;;4935000;29;20027;-70
2021/09/02 04:04:50;;;;;;;11.10;8.90;;;16.10;99.90;;;;;;4933800;29;20118;-68
2021/09/02 04:07:16;;;;;;;12.80;9.85;;;16.10;99.90;;;;;;4933577;29;20136;-69
2021/09/02 04:09:41;;;;;;;10.80;8.80;;;16.10;99.90;;;;;;4933360;29;20028;-68
2021/09/02 04:12:07;;;;;;;12.00;8.68;;;16.00;99.90;;;;;;4933935;29;20027;-70
2021/09/02 04:14:32;;;;;;;15.68;9.02;;;16.00;99.90;;;;;;4934794;29;20031;-69
2021/09/02 04:16:58;;;;;;;12.90;9.00;;;16.00;99.90;;;;;;4934291;29;20032;-68
2021/09/02 04:19:24;;;;;;;11.45;8.77;;;16.00;99.90;;;;;;4933951;29;20055;-70
2021/09/02 04:21:50;;;;;;;13.05;8.68;;;16.00;99.90;;;;;;4934393;29;20055;-69
2021/09/02 04:24:16;;;;;;;12.38;8.77;;;16.00;99.90;;;;;;4934439;29;20039;-69
2021/09/02 04:26:42;;;;;;;13.10;9.20;;;16.00;99.90;;;;;;4933832;29;20088;-69
2021/09/02 04:29:07;;;;;;;12.68;9.15;;;16.00;99.90;;;;;;4934357;29;20028;-68
2021/09/02 04:31:33;;;;;;;12.85;9.82;;;16.00;99.90;;;;;;4933407;29;20483;-69
2021/09/02 04:33:58;;;;;;;13.75;9.55;;;16.00;99.90;;;;;;4934273;29;20487;-71
2021/09/02 04:36:24;;;;;;;14.05;9.38;;;15.90;99.90;;;;;;4936661;29;20027;-74
2021/09/02 04:38:49;;;;;;;13.20;8.60;;;15.90;99.90;;;;;;4936326;29;20031;-72
2021/09/02 04:41:15;;;;;;;13.02;9.82;;;15.90;99.90;;;;;;4936013;29;20020;-75
2021/09/02 04:43:41;;;;;;;11.27;8.77;;;15.90;99.90;;;;;;4937669;29;20472;-72
2021/09/02 04:46:06;;;;;;;12.88;9.20;;;15.90;99.90;;;;;;4936361;29;20030;-69
2021/09/02 04:48:32;;;;;;;12.65;9.60;;;15.90;99.90;;;;;;4937152;29;20030;-69
2021/09/02 04:50:57;;;;;;;13.63;9.95;;;15.90;99.90;;;;;;4937306;29;20079;-68
2021/09/02 04:53:23;;;;;;;12.45;9.05;;;15.90;99.90;;;;;;4936838;29;20040;-69
2021/09/02 04:55:48;;;;;;;14.05;8.75;;;15.90;99.90;;;;;;4936672;29;20052;-68
2021/09/02 04:58:15;;;;;;;13.32;9.45;;;15.80;99.90;;;;;;4937557;29;20413;-69
2021/09/02 05:00:41;;;;;;;13.95;9.10;;;15.90;99.90;;;;;;4937404;29;20046;-69
2021/09/02 05:03:07;;;;;;;15.27;9.05;;;15.90;99.90;;;;;;4936946;29;20051;-69
2021/09/02 05:05:33;;;;;;;14.00;9.23;;;15.90;99.90;;;;;;4937395;29;20071;-73
2021/09/02 05:07:59;;;;;;;14.02;9.75;;;15.90;99.90;;;;;;4936561;29;20020;-69
2021/09/02 05:10:26;;;;;;;13.73;9.23;;;15.90;99.90;;;;;;4937596;29;20535;-76
2021/09/02 05:12:52;;;;;;;13.63;9.57;;;15.80;99.90;;;;;;4935791;29;20071;-74
2021/09/02 05:15:18;;;;;;;14.65;9.18;;;15.90;99.90;;;;;;4936673;29;20053;-71
2021/09/02 05:17:45;;;;;;;18.08;9.20;;;15.90;99.90;;;;;;4937146;29;20549;-72
2021/09/02 05:20:11;;;;;;;11.27;7.63;;;15.90;99.90;;;;;;4936889;29;20048;-72
2021/09/02 05:22:37;;;;;;;10.65;7.95;;;15.90;99.90;;;;;;4936715;29;20068;-69
2021/09/02 05:25:03;;;;;;;13.98;7.80;;;15.90;99.90;;;;;;4936583;29;20063;-69
2021/09/02 05:27:29;;;;;;;13.48;8.07;;;15.90;99.90;;;;;;4937089;29;20031;-68
2021/09/02 05:29:54;;;;;;;11.63;8.13;;;15.90;99.90;;;;;;4935737;29;20032;-69
2021/09/02 05:32:20;;;;;;;12.95;7.97;;;15.90;99.90;;;;;;4937004;29;20024;-69
2021/09/02 05:34:45;;;;;;;11.85;8.25;;;15.90;99.90;;;;;;4939987;29;20167;-69
2021/09/02 05:37:11;;;;;;;11.05;7.43;;;15.90;99.90;;;;;;4947584;29;20055;-68
2021/09/02 05:39:37;;;;;;;10.50;7.90;;;15.90;99.90;;;;;;4945008;28;20027;-68
2021/09/02 05:42:03;;;;;;;11.82;7.63;;;15.90;99.90;;;;;;4936459;29;20028;-70
2021/09/02 05:44:29;;;;;;;11.45;7.28;;;16.00;99.90;;;;;;4949285;28;20114;-68
2021/09/02 05:46:55;;;;;;;8.18;6.97;;;16.00;99.90;;;;;;4955432;28;20055;-69
2021/09/02 05:49:22;;;;;;;10.63;7.35;;;16.10;99.90;;;;;;4954644;29;20563;-69
2021/09/02 05:51:47;;;;;;;10.50;6.75;;;16.10;99.90;;;;;;4953346;29;20468;-68
2021/09/02 05:54:13;;;;;;;9.20;6.63;;;16.20;99.90;;;;;;4936596;29;20056;-68
2021/09/02 05:56:39;;;;;;;10.25;7.20;;;16.10;99.90;;;;;;4936895;29;20106;-69
2021/09/02 05:59:04;;;;;;;11.05;5.90;;;16.10;99.90;;;;;;4935346;29;20032;-68
2021/09/02 06:01:30;;;;;;;9.80;5.85;;;16.20;99.90;;;;;;4936672;29;20095;-68
2021/09/02 06:03:55;;;;;;;8.90;6.32;;;16.20;99.90;;;;;;4935927;29;20028;-70
2021/09/02 06:06:21;;;;;;;9.45;6.13;;;16.30;99.90;;;;;;4935728;29;20055;-69
2021/09/02 06:08:46;;;;;;;10.27;6.25;;;16.30;99.90;;;;;;4936154;29;20457;-69
2021/09/02 06:11:12;;;;;;;9.25;5.78;;;16.40;99.90;;;;;;4936183;29;20107;-69
2021/09/02 06:13:37;;;;;;;10.13;5.55;;;16.40;99.90;;;;;;4935733;29;20058;-69
2021/09/02 06:16:03;;;;;;;8.15;6.20;;;16.40;99.90;;;;;;4934682;29;20378;-68
2021/09/02 06:18:29;;;;;;;6.75;4.45;;;16.40;99.90;;;;;;4944691;29;20116;-67
2021/09/02 06:20:55;;;;;;;12.55;5.85;;;16.40;99.90;;;;;;4936452;29;20034;-67
2021/09/02 06:23:21;;;;;;;8.13;5.13;;;16.30;99.90;;;;;;4950379;28;20047;-72
2021/09/02 06:25:47;;;;;;;12.20;5.72;;;16.30;99.90;;;;;;4936653;28;20111;-69
2021/09/02 06:28:12;;;;;;;7.55;5.30;;;16.30;99.90;;;;;;4947796;28;20452;-72
2021/09/02 06:30:38;;;;;;;9.30;5.53;;;16.30;99.90;;;;;;4946764;29;20039;-71
2021/09/02 06:33:04;;;;;;;8.30;4.78;;;16.20;99.90;;;;;;4950846;29;20182;-70
2021/09/02 06:35:29;;;;;;;8.05;5.47;;;16.20;99.90;;;;;;4946997;28;20176;-70
2021/09/02 06:37:55;;;;;;;9.80;4.65;;;16.20;99.90;;;;;;4933491;29;20487;-69
2021/09/02 06:40:21;;;;;;;9.43;5.60;;;16.10;99.90;;;;;;4940486;29;20613;-73
2021/09/02 06:42:46;;;;;;;6.75;4.60;;;16.20;99.90;;;;;;4952485;29;20057;-75
2021/09/02 06:45:12;;;;;;;7.70;5.03;;;16.20;99.90;;;;;;4941664;29;20035;-73
2021/09/02 06:47:39;;;;;;;7.00;5.10;;;16.20;99.90;;;;;;4938506;29;20110;-68
2021/09/02 06:50:09;;;;;;;9.52;5.38;;;16.30;99.90;;;;;;4952595;29;20090;-69
2021/09/02 06:52:35;;;;;;;7.80;4.53;;;16.20;99.90;;;;;;4954497;28;20495;-70
2021/09/02 06:55:01;;;;;;;6.22;4.55;;;16.20;99.90;;;;;;4953646;28;20035;-66
2021/09/02 06:57:26;;;;;;;7.68;4.78;;;16.10;99.90;;;;;;4952616;28;20102;-65
2021/09/02 06:59:54;;;;;;;7.32;4.90;;;16.00;99.90;;;;;;4952309;29;20030;-76
2021/09/02 07:02:20;;;;;;;7.25;5.10;;;16.00;99.90;;;;;;4952168;29;20087;-67
2021/09/02 07:04:45;;;;;;;12.88;5.93;;;16.00;99.90;;;;;;4948595;29;20040;-67
2021/09/02 07:07:11;;;;;;;13.52;5.25;;;15.90;99.90;;;;;;4950478;29;20119;-68
2021/09/02 07:09:37;;;;;;;9.98;5.72;;;15.90;99.90;;;;;;4933760;29;20034;-67
2021/09/02 07:12:03;;;;;;;7.07;5.40;;;15.90;99.90;;;;;;4948014;29;20035;-69
2021/09/02 07:14:29;;;;;;;9.18;5.10;;;15.90;99.90;;;;;;4953928;28;20026;-71
2021/09/02 07:16:54;;;;;;;6.35;5.28;;;15.90;99.90;;;;;;4945479;28;20380;-69
2021/09/02 07:19:20;;;;;;;7.47;5.45;;;15.90;99.90;;;;;;4935596;29;20090;-70
2021/09/02 07:21:45;;;;;;;9.02;5.50;;;15.90;99.90;;;;;;4933017;29;20035;-68
2021/09/02 07:24:11;;;;;;;8.07;5.90;;;15.90;99.90;;;;;;4934391;29;20028;-69
2021/09/02 07:26:38;;;;;;;8.05;5.45;;;15.90;99.90;;;;;;4934814;29;20129;-70
2021/09/02 07:29:06;;;;;;;9.13;5.00;;;15.90;99.90;;;;;;4934581;29;20481;-71
2021/09/02 07:31:32;;;;;;;7.05;5.00;;;15.90;99.90;;;;;;4945852;28;20030;-70
2021/09/02 07:33:58;;;;;;;9.18;5.60;;;16.00;99.90;;;;;;4941082;28;20028;-70
2021/09/02 07:36:23;;;;;;;7.13;4.72;;;16.00;99.90;;;;;;4933666;29;20031;-69
2021/09/02 07:38:49;;;;;;;11.75;6.10;;;16.00;99.90;;;;;;4938162;29;20380;-71
2021/09/02 07:41:14;;;;;;;9.48;5.88;;;16.00;99.90;;;;;;4953334;28;20042;-70
2021/09/02 07:43:40;;;;;;;8.00;5.40;;;16.00;99.90;;;;;;4951422;29;20034;-70
2021/09/02 07:46:05;;;;;;;7.38;5.72;;;16.10;99.90;;;;;;4952144;29;20043;-71
2021/09/02 07:48:31;;;;;;;8.52;5.13;;;16.10;99.90;;;;;;4952624;29;20020;-68
2021/09/02 07:50:56;;;;;;;8.98;5.43;;;16.10;99.90;;;;;;4950814;28;20026;-70
2021/09/02 07:53:22;;;;;;;8.77;5.72;;;16.10;99.90;;;;;;4951097;29;20035;-70
2021/09/02 07:55:48;;;;;;;8.15;5.82;;;16.20;99.90;;;;;;4933670;29;20032;-71
2021/09/02 07:58:14;;;;;;;10.00;6.35;;;16.20;99.90;;;;;;4941177;29;20023;-72
2021/09/02 08:00:39;;;;;;;8.68;5.38;;;16.30;99.90;;;;;;4952136;29;20082;-72
2021/09/02 08:03:05;;;;;;;8.65;4.43;;;16.40;99.90;;;;;;4953433;28;20027;-72
2021/09/02 08:05:30;;;;;;;7.57;4.85;;;16.40;99.90;;;;;;4952977;28;20049;-71
2021/09/02 08:07:56;;;;;;;8.85;4.63;;;16.50;99.90;;;;;;4951611;28;20050;-71
2021/09/02 08:10:24;;;;;;;8.02;4.30;;;16.60;99.90;;;;;;4955867;28;20038;-71
2021/09/02 08:12:52;;;;;;;10.00;4.88;;;16.70;99.90;;;;;;4953420;29;20473;-71
2021/09/02 08:15:19;;;;;;;7.85;4.55;;;16.80;99.90;;;;;;4946484;29;20031;-71
2021/09/02 08:17:46;;;;;;;7.07;5.03;;;16.90;99.90;;;;;;4951748;29;20476;-71
2021/09/02 08:20:13;;;;;;;5.68;4.45;;;17.00;99.90;;;;;;4956232;28;20079;-70
2021/09/02 08:22:39;;;;;;;13.20;6.15;;;17.10;99.90;;;;;;4956160;28;20050;-71
2021/09/02 08:25:06;;;;;;;8.32;4.70;;;17.20;99.90;;;;;;4955528;28;20039;-72
2021/09/02 08:27:31;;;;;;;6.50;4.45;;;17.30;99.90;;;;;;4952354;29;20023;-72
2021/09/02 08:29:57;;;;;;;5.85;4.47;;;17.20;99.90;;;;;;4937069;28;20090;-72
2021/09/02 08:32:23;;;;;;;11.65;5.60;;;17.30;99.90;;;;;;4936003;29;20118;-74
2021/09/02 08:34:48;;;;;;;7.65;4.53;;;17.30;99.90;;;;;;4951642;29;20035;-71
2021/09/02 08:37:14;;;;;;;7.45;5.20;;;17.30;99.90;;;;;;4953846;28;20027;-76
2021/09/02 08:39:39;;;;;;;8.73;5.35;;;17.40;99.90;;;;;;4940019;29;20027;-75
2021/09/02 08:42:05;;;;;;;7.53;4.70;;;17.50;99.90;;;;;;4946670;28;20544;-72
2021/09/02 08:44:30;;;;;;;7.03;4.38;;;17.50;99.90;;;;;;4956623;28;20043;-71
2021/09/02 08:46:56;;;;;;;7.10;4.85;;;17.50;99.90;;;;;;4955699;28;20023;-74
2021/09/02 08:49:24;;;;;;;9.60;5.88;;;17.60;99.90;;;;;;4955848;28;20156;-72
2021/09/02 08:51:51;;;;;;;6.80;4.93;;;17.70;99.90;;;;;;4951339;29;20019;-73
2021/09/02 08:54:17;;;;;;;7.05;4.68;;;17.80;99.90;;;;;;4944841;29;20106;-71
2021/09/02 08:56:43;;;;;;;8.35;5.30;;;17.90;99.90;;;;;;4937197;29;20028;-72
2021/09/02 08:59:08;;;;;;;7.40;5.18;;;18.20;99.90;;;;;;4942978;29;20559;-68
2021/09/02 09:01:34;;;;;;;13.10;5.80;;;18.40;99.90;;;;;;4955841;28;20042;-69
2021/09/02 09:04:11;;;;;;;10.98;6.90;;;18.60;99.90;;;;;;4951548;28;20028;-69
2021/09/02 09:06:38;;;;;;;9.32;6.05;;;18.60;99.90;;;;;;4956415;28;20496;-70
2021/09/02 09:09:22;;;;;;;9.43;6.13;;;18.60;99.90;;;;;;4954690;28;20027;-69
2021/09/02 09:11:49;;;;;;;11.25;6.55;;;18.60;99.90;;;;;;4956239;28;20047;-76
2021/09/02 09:14:23;;;;;;;7.95;5.63;;;18.60;99.90;;;;;;4954247;29;20027;-72
2021/09/02 09:16:54;;;;;;;8.70;5.30;;;18.50;99.90;;;;;;4947947;29;20030;-73
2021/09/02 09:19:41;;;;;;;9.63;6.25;;;18.50;99.90;;;;;;4937226;29;20501;-69
2021/09/02 09:22:10;;;;;;;9.40;5.35;;;18.60;99.90;;;;;;4943712;29;20071;-68
2021/09/02 09:24:49;;;;;;;8.63;6.10;;;18.70;99.90;;;;;;4955118;29;20118;-68
2021/09/02 09:27:19;;;;;;;9.05;5.60;;;18.90;99.90;;;;;;4954871;29;20034;-68
2021/09/02 09:30:22;;;;;;;7.63;5.23;;;19.10;99.90;;;;;;4954976;28;20628;-69
2021/09/02 09:32:53;;;;;;;7.53;5.10;;;19.40;99.90;;;;;;4944598;29;20279;-70
2021/09/02 09:35:28;;;;;;;8.27;4.93;;;19.70;99.90;;;;;;4936032;29;20409;-68
2021/09/02 09:38:20;;;;;;;6.70;5.05;;;19.80;99.90;;;;;;4936426;29;20469;-68
2021/09/02 09:40:51;;;;;;;8.50;5.30;;;19.90;99.90;;;;;;4935758;29;20028;-69
2021/09/02 09:43:24;;;;;;;12.75;5.57;;;19.90;99.90;;;;;;4936109;29;20028;-68
2021/09/02 09:45:50;;;;;;;7.40;4.88;;;19.80;99.90;;;;;;4936130;29;20376;-68
2021/09/02 09:48:22;;;;;;;9.77;5.25;;;19.80;99.90;;;;;;4935274;29;20123;-69
2021/09/02 09:51:16;;;;;;;7.30;4.28;;;19.80;99.90;;;;;;4935409;29;20094;-74
2021/09/02 09:53:47;;;;;;;6.88;5.00;;;19.70;99.90;;;;;;4935108;29;20086;-71
2021/09/02 09:56:14;;;;;;;10.13;5.20;;;19.70;99.90;;;;;;4934572;28;20031;-69
2021/09/02 09:58:41;;;;;;;6.95;5.10;;;19.70;99.90;;;;;;4934201;29;20380;-68
2021/09/02 10:01:06;;;;;;;7.65;5.22;;;19.70;99.90;;;;;;4953577;29;20031;-72
2021/09/02 10:03:33;;;;;;;10.25;5.32;;;19.70;99.90;;;;;;4951891;29;20122;-72
2021/09/02 10:06:08;;;;;;;7.47;4.70;;;19.70;99.90;;;;;;4954924;28;20104;-68
2021/09/02 10:08:36;;;;;;;7.78;4.90;;;19.70;99.90;;;;;;4954133;29;20487;-68
2021/09/02 10:11:05;;;;;;;10.55;6.13;;;19.70;99.90;;;;;;4952633;29;20023;-68
2021/09/02 10:13:31;;;;;;;7.90;4.93;;;19.60;99.90;;;;;;4955399;28;20023;-68
2021/09/02 10:15:57;;;;;;;7.90;5.72;;;19.60;99.90;;;;;;4954918;28;20157;-68
2021/09/02 10:18:23;;;;;;;7.13;4.43;;;19.60;99.90;;;;;;4953973;28;20054;-69
2021/09/02 10:20:49;;;;;;;6.60;4.95;;;19.50;99.90;;;;;;4954961;28;20467;-67
2021/09/02 10:23:23;;;;;;;6.47;4.38;;;19.60;99.90;;;;;;4955166;28;20019;-69
2021/09/02 10:25:48;;;;;;;7.90;5.10;;;19.60;99.90;;;;;;4954396;28;20035;-69
2021/09/02 10:28:32;;;;;;;9.15;5.28;;;19.70;99.90;;;;;;4953848;29;20027;-69
2021/09/02 10:31:04;;;;;;;5.82;4.60;;;19.70;99.90;;;;;;4953912;28;20055;-68
2021/09/02 10:33:31;;;;;;;;;;;19.80;99.90;;;;;;4953745;29;20530;-70
2021/09/02 10:35:56;;;;;;;14.95;5.13;;;19.80;99.90;;;;;;4954582;28;19913;-67
2021/09/02 10:38:39;;;;;;;8.05;5.30;;;19.80;99.90;;;;;;4953738;29;20430;-69
2021/09/02 10:41:05;;;;;;;7.32;5.28;;;19.90;99.90;;;;;;4954586;28;20114;-67
2021/09/02 10:43:54;;;;;;;8.10;5.68;;;19.90;99.90;;;;;;4954878;28;20019;-67
2021/09/02 10:46:30;;;;;;;9.10;5.43;;;19.90;99.90;;;;;;4954191;28;20043;-67
2021/09/02 10:49:24;;;;;;;7.22;5.15;;;20.00;99.90;;;;;;4954326;28;20038;-69
2021/09/02 10:52:24;;;;;;;6.93;4.10;;;20.00;99.90;;;;;;4954431;28;20151;-67
2021/09/02 10:54:50;;;;;;;6.40;4.70;;;20.10;99.90;;;;;;4953776;28;20023;-67
2021/09/02 10:57:16;;;;;;;11.48;6.13;;;20.10;99.90;;;;;;4954616;28;20038;-67
2021/09/02 10:59:53;;;;;;;9.88;5.00;;;20.10;99.90;;;;;;4952657;29;20027;-67
2021/09/02 11:02:24;;;;;;;6.28;4.43;;;20.00;99.90;;;;;;4954647;28;20023;-67
2021/09/02 11:05:05;;;;;;;6.80;4.88;;;19.90;99.90;;;;;;4954381;28;20062;-67
2021/09/02 11:07:42;;;;;;;8.20;5.10;;;19.90;99.90;;;;;;4953868;28;20114;-68
2021/09/02 11:10:20;;;;;;;9.23;4.78;;;19.90;99.90;;;;;;4954375;28;20361;-68
2021/09/02 11:12:47;;;;;;;7.05;5.00;;;19.80;99.90;;;;;;4954038;28;20082;-69
2021/09/02 11:15:21;;;;;;;16.08;4.90;;;19.90;99.90;;;;;;4953640;28;20468;-69
2021/09/02 11:17:51;;;;;;;7.47;5.03;;;19.90;99.90;;;;;;4954036;28;20031;-68
2021/09/02 11:20:22;;;;;;;6.00;4.30;;;20.10;99.90;;;;;;4954212;28;20055;-67
2021/09/02 11:22:48;;;;;;;5.20;4.13;;;20.20;99.90;;;;;;4953445;28;20113;-68
2021/09/02 11:25:14;;;;;;;8.18;4.75;;;20.30;99.90;;;;;;4954179;28;20063;-68
2021/09/02 11:27:40;;;;;;;6.22;4.65;;;20.40;99.90;;;;;;4954231;28;20028;-72
2021/09/02 11:30:20;;;;;;;13.90;4.93;;;20.30;99.90;;;;;;4953356;28;20027;-70
2021/09/02 11:32:59;;;;;;;6.03;4.13;;;20.30;99.90;;;;;;4954172;28;20022;-68
2021/09/02 11:35:25;;;;;;;7.72;4.20;;;20.40;99.90;;;;;;4952307;29;20455;-67
2021/09/02 11:37:51;;;;;;;6.03;4.50;;;20.40;99.90;;;;;;4954017;28;20054;-67
2021/09/02 11:40:26;;;;;;;6.30;4.63;;;20.50;99.90;;;;;;4952560;29;20024;-68
2021/09/02 11:42:53;;;;;;;7.03;4.30;;;20.50;99.90;;;;;;4954168;28;20031;-67
2021/09/02 11:45:20;;;;;;;6.43;4.68;;;20.50;99.90;;;;;;4958093;28;20039;-67
2021/09/02 11:47:48;;;;;;;8.38;4.78;;;20.50;99.90;;;;;;4957613;28;20015;-68
2021/09/02 11:50:14;;;;;;;5.72;4.35;;;20.60;99.90;;;;;;4957317;28;20041;-67
2021/09/02 11:52:42;;;;;;;7.80;4.97;;;20.60;99.90;;;;;;4958143;28;20031;-68
2021/09/02 11:55:13;;;;;;;5.65;4.88;;;20.70;99.90;;;;;;4957768;28;20029;-67
2021/09/02 11:57:39;;;;;;;6.40;4.50;;;20.70;99.90;;;;;;4957465;28;20027;-67
2021/09/02 12:00:05;;;;;;;8.52;5.45;;;20.70;99.90;;;;;;4956003;29;20049;-67
2021/09/02 12:02:31;;;;;;;8.70;4.93;;;20.70;99.90;;;;;;4958086;28;20031;-67
2021/09/02 12:04:57;;;;;;;6.57;4.90;;;20.70;99.90;;;;;;4956681;28;20035;-67
2021/09/02 12:07:22;;;;;;;6.38;4.18;;;20.70;99.90;;;;;;4957739;28;20071;-67
2021/09/02 12:09:50;;;;;;;7.03;4.78;;;20.70;99.90;;;;;;4957238;28;20055;-67
2021/09/02 12:12:32;;;;;;;9.50;4.82;;;20.70;99.90;;;;;;4955544;29;20391;-68
2021/09/02 12:14:58;;;;;;;8.90;5.18;;;20.80;99.90;;;;;;4957210;28;20027;-70
2021/09/02 12:17:35;;;;;;;6.65;4.63;;;20.80;99.90;;;;;;4956860;28;20035;-68
2021/09/02 12:20:03;;;;;;;7.03;4.95;;;20.70;99.90;;;;;;4956628;28;20130;-67
2021/09/02 12:22:32;;;;;;;6.68;4.80;;;20.60;99.90;;;;;;4957481;28;20022;-67
2021/09/02 12:25:12;;;;;;;6.55;4.35;;;20.50;99.90;;;;;;4956279;28;20019;-68
2021/09/02 12:27:47;;;;;;;5.60;4.45;;;20.50;99.90;;;;;;4957532;28;20023;-67
2021/09/02 12:30:15;;;;;;;7.45;4.70;;;20.50;99.90;;;;;;4957121;28;20027;-67
2021/09/02 12:32:41;;;;;;;5.55;4.60;;;20.60;99.90;;;;;;4956392;28;20041;-67
2021/09/02 12:35:11;;;;;;;6.70;5.38;;;20.60;99.90;;;;;;4955867;29;20379;-67
2021/09/02 12:37:38;;;;;;;6.23;5.17;;;20.60;99.90;;;;;;4957375;28;20019;-67
2021/09/02 12:40:10;;;;;;;5.72;4.40;;;20.60;99.90;;;;;;4955876;28;20281;-67
2021/09/02 12:42:36;;;;;;;5.30;3.78;;;20.60;99.90;;;;;;4957193;28;20082;-67
2021/09/02 12:45:17;;;;;;;5.35;4.28;;;20.60;99.90;;;;;;4956545;28;20031;-67